sensor_id;sensor_type;location;lat;lon;timestamp;temperature;humidity
2723;DHT22;1369;53.216;10.396;2023-02-21T16:20:26;10.40;99.90
2723;DHT22;1369;53.216;10.396;2023-02-21T16:23:30;10.40;99.90
2723;DHT22;1369;53.216;10.396;2023-02-21T16:26:01;10.30;99.90
2723;DHT22;1369;53.216;10.396;2023-02-21T16:28:28;10.30;99.90
2723;DHT22;1369;53.216;10.396;2023-02-21T16:30:55;10.30;99.90
2723;DHT22;1369;53.216;10.396;2023-02-21T16:33:23;10.20;99.90
2723;DHT22;1369;53.216;10.396;2023-02-21T16:35:49;10.10;99.90
2723;DHT22;1369;53.216;10.396;2023-02-21T16:38:19;10.10;99.90
2723;DHT22;1369;53.216;10.396;2023-02-21T16:40:46;10.10;99.90
2723;DHT22;1369;53.216;10.396;2023-02-21T16:43:18;10.10;99.90
2723;DHT22;1369;53.216;10.396;2023-02-21T16:45:44;10.10;99.90
2723;DHT22;1369;53.216;10.396;2023-02-21T16:48:16;10.00;99.90
2723;DHT22;1369;53.216;10.396;2023-02-21T16:50:45;10.10;99.90
2723;DHT22;1369;53.216;10.396;2023-02-21T16:53:11;10.10;99.90
2723;DHT22;1369;53.216;10.396;2023-02-21T16:55:37;10.00;99.90
2723;DHT22;1369;53.216;10.396;2023-02-21T16:58:21;10.00;99.90
2723;DHT22;1369;53.216;10.396;2023-02-21T17:00:51;10.00;99.90
2723;DHT22;1369;53.216;10.396;2023-02-21T17:03:18;10.00;99.90
2723;DHT22;1369;53.216;10.396;2023-02-21T17:05:44;10.00;99.90
2723;DHT22;1369;53.216;10.396;2023-02-21T17:08:09;9.90;99.90
2723;DHT22;1369;53.216;10.396;2023-02-21T17:10:35;9.90;99.90
2723;DHT22;1369;53.216;10.396;2023-02-21T17:13:01;9.90;99.90
2723;DHT22;1369;53.216;10.396;2023-02-21T17:15:28;9.90;99.90
2723;DHT22;1369;53.216;10.396;2023-02-21T17:17:53;9.90;99.90
2723;DHT22;1369;53.216;10.396;2023-02-21T17:20:20;9.90;99.90
2723;DHT22;1369;53.216;10.396;2023-02-21T17:22:45;9.90;99.90
2723;DHT22;1369;53.216;10.396;2023-02-21T17:25:12;9.90;99.90
2723;DHT22;1369;53.216;10.396;2023-02-21T17:27:38;9.90;99.90
2723;DHT22;1369;53.216;10.396;2023-02-21T17:30:04;9.90;99.90
2723;DHT22;1369;53.216;10.396;2023-02-21T17:32:30;10.00;99.90
2723;DHT22;1369;53.216;10.396;2023-02-21T17:34:56;10.00;99.90
2723;DHT22;1369;53.216;10.396;2023-02-21T17:37:21;10.00;99.90
2723;DHT22;1369;53.216;10.396;2023-02-21T17:39:51;10.00;99.90
2723;DHT22;1369;53.216;10.396;2023-02-21T17:42:17;9.90;99.90
2723;DHT22;1369;53.216;10.396;2023-02-21T17:44:43;9.90;99.90
2723;DHT22;1369;53.216;10.396;2023-02-21T17:47:12;9.90;99.90
2723;DHT22;1369;53.216;10.396;2023-02-21T17:49:38;9.90;99.90
2723;DHT22;1369;53.216;10.396;2023-02-21T17:52:04;9.90;99.90
2723;DHT22;1369;53.216;10.396;2023-02-21T17:54:30;9.90;99.90
2723;DHT22;1369;53.216;10.396;2023-02-21T17:56:55;9.90;99.90
2723;DHT22;1369;53.216;10.396;2023-02-21T17:59:21;9.80;99.90
2723;DHT22;1369;53.216;10.396;2023-02-21T18:01:47;9.80;99.90
2723;DHT22;1369;53.216;10.396;2023-02-21T18:04:13;9.80;99.90
2723;DHT22;1369;53.216;10.396;2023-02-21T18:06:39;9.80;99.90
2723;DHT22;1369;53.216;10.396;2023-02-21T18:09:05;9.80;99.90
2723;DHT22;1369;53.216;10.396;2023-02-21T18:11:32;9.80;99.90
2723;DHT22;1369;53.216;10.396;2023-02-21T18:14:00;9.80;99.90
2723;DHT22;1369;53.216;10.396;2023-02-21T18:16:26;9.80;99.90
2723;DHT22;1369;53.216;10.396;2023-02-21T18:18:52;9.80;99.90
2723;DHT22;1369;53.216;10.396;2023-02-21T18:21:18;9.80;99.90
2723;DHT22;1369;53.216;10.396;2023-02-21T18:23:46;9.80;99.90
2723;DHT22;1369;53.216;10.396;2023-02-21T18:26:12;9.80;99.90
2723;DHT22;1369;53.216;10.396;2023-02-21T18:28:38;9.70;99.90
2723;DHT22;1369;53.216;10.396;2023-02-21T18:31:04;9.80;99.90
2723;DHT22;1369;53.216;10.396;2023-02-21T18:33:29;9.70;99.90
2723;DHT22;1369;53.216;10.396;2023-02-21T18:35:56;9.70;99.90
2723;DHT22;1369;53.216;10.396;2023-02-21T18:38:23;9.70;99.90
2723;DHT22;1369;53.216;10.396;2023-02-21T18:40:49;9.70;99.90
2723;DHT22;1369;53.216;10.396;2023-02-21T18:43:17;9.70;99.90
2723;DHT22;1369;53.216;10.396;2023-02-21T18:45:43;9.60;99.90
2723;DHT22;1369;53.216;10.396;2023-02-21T18:48:09;9.60;99.90
2723;DHT22;1369;53.216;10.396;2023-02-21T18:50:34;9.60;99.90
2723;DHT22;1369;53.216;10.396;2023-02-21T18:53:01;9.70;99.90
2723;DHT22;1369;53.216;10.396;2023-02-21T18:55:28;9.60;99.90
2723;DHT22;1369;53.216;10.396;2023-02-21T18:57:54;9.60;99.90
2723;DHT22;1369;53.216;10.396;2023-02-21T19:00:22;9.60;99.90
2723;DHT22;1369;53.216;10.396;2023-02-21T19:02:47;9.60;99.90
2723;DHT22;1369;53.216;10.396;2023-02-21T19:05:21;9.60;99.90
2723;DHT22;1369;53.216;10.396;2023-02-21T19:07:47;9.50;99.90
2723;DHT22;1369;53.216;10.396;2023-02-21T19:10:16;9.50;99.90
2723;DHT22;1369;53.216;10.396;2023-02-21T19:12:41;9.50;99.90
2723;DHT22;1369;53.216;10.396;2023-02-21T19:15:08;9.40;99.90
2723;DHT22;1369;53.216;10.396;2023-02-21T19:17:33;9.50;99.90
2723;DHT22;1369;53.216;10.396;2023-02-21T19:19:59;9.40;99.90
2723;DHT22;1369;53.216;10.396;2023-02-21T19:22:25;9.40;99.90
2723;DHT22;1369;53.216;10.396;2023-02-21T19:24:51;9.40;99.90
2723;DHT22;1369;53.216;10.396;2023-02-21T19:27:16;9.30;99.90
2723;DHT22;1369;53.216;10.396;2023-02-21T19:29:42;9.20;99.90
2723;DHT22;1369;53.216;10.396;2023-02-21T19:32:08;9.20;99.90
2723;DHT22;1369;53.216;10.396;2023-02-21T19:34:34;9.10;99.90
2723;DHT22;1369;53.216;10.396;2023-02-21T19:37:00;9.10;99.90
2723;DHT22;1369;53.216;10.396;2023-02-21T19:39:25;9.10;99.90
2723;DHT22;1369;53.216;10.396;2023-02-21T19:41:51;9.10;99.90
2723;DHT22;1369;53.216;10.396;2023-02-21T19:44:17;9.10;99.90
2723;DHT22;1369;53.216;10.396;2023-02-21T19:46:43;9.20;99.90
2723;DHT22;1369;53.216;10.396;2023-02-21T19:49:10;9.20;99.90
2723;DHT22;1369;53.216;10.396;2023-02-21T19:51:43;9.20;99.90
2723;DHT22;1369;53.216;10.396;2023-02-21T19:54:14;9.20;99.90
2723;DHT22;1369;53.216;10.396;2023-02-21T19:56:39;9.30;99.90
2723;DHT22;1369;53.216;10.396;2023-02-21T19:59:06;9.30;99.90
2723;DHT22;1369;53.216;10.396;2023-02-21T20:01:32;9.30;99.90
2723;DHT22;1369;53.216;10.396;2023-02-21T20:03:58;9.20;99.90
2723;DHT22;1369;53.216;10.396;2023-02-21T20:06:24;9.20;99.90
2723;DHT22;1369;53.216;10.396;2023-02-21T20:08:53;9.20;99.90
2723;DHT22;1369;53.216;10.396;2023-02-21T20:11:20;9.20;99.90
2723;DHT22;1369;53.216;10.396;2023-02-21T20:13:46;9.30;99.90
2723;DHT22;1369;53.216;10.396;2023-02-21T20:16:12;9.30;99.90
2723;DHT22;1369;53.216;10.396;2023-02-21T20:18:44;9.30;99.90
2723;DHT22;1369;53.216;10.396;2023-02-21T20:21:16;9.30;99.90
2723;DHT22;1369;53.216;10.396;2023-02-21T20:23:42;9.30;99.90
2723;DHT22;1369;53.216;10.396;2023-02-21T20:26:10;9.30;99.90
2723;DHT22;1369;53.216;10.396;2023-02-21T20:28:36;9.40;99.90
2723;DHT22;1369;53.216;10.396;2023-02-21T20:31:01;9.40;99.90
2723;DHT22;1369;53.216;10.396;2023-02-21T20:33:27;9.40;99.90
2723;DHT22;1369;53.216;10.396;2023-02-21T20:35:52;9.40;99.90
2723;DHT22;1369;53.216;10.396;2023-02-21T20:38:18;9.40;99.90
2723;DHT22;1369;53.216;10.396;2023-02-21T20:40:44;9.30;99.90
2723;DHT22;1369;53.216;10.396;2023-02-21T20:43:10;9.30;99.90
2723;DHT22;1369;53.216;10.396;2023-02-21T20:45:36;9.20;99.90
2723;DHT22;1369;53.216;10.396;2023-02-21T20:48:06;9.20;99.90
2723;DHT22;1369;53.216;10.396;2023-02-21T20:50:33;9.20;99.90
2723;DHT22;1369;53.216;10.396;2023-02-21T20:52:59;9.20;99.90
2723;DHT22;1369;53.216;10.396;2023-02-21T20:55:25;9.20;99.90
2723;DHT22;1369;53.216;10.396;2023-02-21T20:57:51;9.10;99.90
2723;DHT22;1369;53.216;10.396;2023-02-21T21:00:16;9.10;99.90
2723;DHT22;1369;53.216;10.396;2023-02-21T21:02:48;9.10;99.90
2723;DHT22;1369;53.216;10.396;2023-02-21T21:05:14;9.10;99.90
2723;DHT22;1369;53.216;10.396;2023-02-21T21:07:42;9.20;99.90
2723;DHT22;1369;53.216;10.396;2023-02-21T21:10:09;9.20;99.90
2723;DHT22;1369;53.216;10.396;2023-02-21T21:12:36;9.20;99.90
2723;DHT22;1369;53.216;10.396;2023-02-21T21:15:03;9.20;99.90
2723;DHT22;1369;53.216;10.396;2023-02-21T21:17:29;9.20;99.90
2723;DHT22;1369;53.216;10.396;2023-02-21T21:19:54;9.20;99.90
2723;DHT22;1369;53.216;10.396;2023-02-21T21:22:22;9.20;99.90
2723;DHT22;1369;53.216;10.396;2023-02-21T21:24:50;9.10;99.90
2723;DHT22;1369;53.216;10.396;2023-02-21T21:27:18;9.10;99.90
2723;DHT22;1369;53.216;10.396;2023-02-21T21:29:46;9.10;99.90
2723;DHT22;1369;53.216;10.396;2023-02-21T21:32:14;9.10;99.90
2723;DHT22;1369;53.216;10.396;2023-02-21T21:34:45;9.20;99.90
2723;DHT22;1369;53.216;10.396;2023-02-21T21:37:12;9.20;99.90
2723;DHT22;1369;53.216;10.396;2023-02-21T21:39:42;9.30;99.90
2723;DHT22;1369;53.216;10.396;2023-02-21T21:42:08;9.30;99.90
2723;DHT22;1369;53.216;10.396;2023-02-21T21:44:38;9.30;99.90
2723;DHT22;1369;53.216;10.396;2023-02-21T21:47:08;9.30;99.90
2723;DHT22;1369;53.216;10.396;2023-02-21T21:49:33;9.30;99.90
2723;DHT22;1369;53.216;10.396;2023-02-21T21:52:00;9.40;99.90
2723;DHT22;1369;53.216;10.396;2023-02-21T21:54:28;9.40;99.90
2723;DHT22;1369;53.216;10.396;2023-02-21T21:56:57;9.40;99.90
2723;DHT22;1369;53.216;10.396;2023-02-21T21:59:23;9.30;99.90
2723;DHT22;1369;53.216;10.396;2023-02-21T22:01:52;9.30;99.90
2723;DHT22;1369;53.216;10.396;2023-02-21T22:04:22;9.30;99.90
2723;DHT22;1369;53.216;10.396;2023-02-21T22:06:51;9.20;99.90
2723;DHT22;1369;53.216;10.396;2023-02-21T22:09:17;9.20;99.90
2723;DHT22;1369;53.216;10.396;2023-02-21T22:11:47;9.20;99.90
2723;DHT22;1369;53.216;10.396;2023-02-21T22:14:15;9.10;99.90
2723;DHT22;1369;53.216;10.396;2023-02-21T22:16:43;9.20;99.90
2723;DHT22;1369;53.216;10.396;2023-02-21T22:19:09;9.30;99.90
2723;DHT22;1369;53.216;10.396;2023-02-21T22:21:36;9.20;99.90
2723;DHT22;1369;53.216;10.396;2023-02-21T22:24:03;9.20;99.90
2723;DHT22;1369;53.216;10.396;2023-02-21T22:26:30;9.10;99.90
2723;DHT22;1369;53.216;10.396;2023-02-21T22:28:56;9.10;99.90
2723;DHT22;1369;53.216;10.396;2023-02-21T22:31:23;9.10;99.90
2723;DHT22;1369;53.216;10.396;2023-02-21T22:33:49;9.10;99.90
2723;DHT22;1369;53.216;10.396;2023-02-21T22:36:14;9.00;99.90
2723;DHT22;1369;53.216;10.396;2023-02-21T22:38:42;9.10;99.90
2723;DHT22;1369;53.216;10.396;2023-02-21T22:41:22;9.10;99.90
2723;DHT22;1369;53.216;10.396;2023-02-21T22:43:49;9.10;99.90
2723;DHT22;1369;53.216;10.396;2023-02-21T22:46:16;9.10;99.90
2723;DHT22;1369;53.216;10.396;2023-02-21T22:48:42;9.00;99.90
2723;DHT22;1369;53.216;10.396;2023-02-21T22:51:13;9.10;99.90
2723;DHT22;1369;53.216;10.396;2023-02-21T22:53:39;9.10;99.90
2723;DHT22;1369;53.216;10.396;2023-02-21T22:56:06;9.10;99.90
2723;DHT22;1369;53.216;10.396;2023-02-21T22:58:34;9.00;99.90
2723;DHT22;1369;53.216;10.396;2023-02-21T23:01:00;9.00;99.90
2723;DHT22;1369;53.216;10.396;2023-02-21T23:03:25;9.10;99.90
2723;DHT22;1369;53.216;10.396;2023-02-21T23:05:53;9.10;99.90
2723;DHT22;1369;53.216;10.396;2023-02-21T23:08:21;9.10;99.90
2723;DHT22;1369;53.216;10.396;2023-02-21T23:10:47;9.10;99.90
2723;DHT22;1369;53.216;10.396;2023-02-21T23:13:22;9.10;99.90
2723;DHT22;1369;53.216;10.396;2023-02-21T23:15:49;9.00;99.90
2723;DHT22;1369;53.216;10.396;2023-02-21T23:18:17;9.00;99.90
2723;DHT22;1369;53.216;10.396;2023-02-21T23:20:48;9.00;99.90
2723;DHT22;1369;53.216;10.396;2023-02-21T23:23:21;9.00;99.90
2723;DHT22;1369;53.216;10.396;2023-02-21T23:25:51;9.00;99.90
2723;DHT22;1369;53.216;10.396;2023-02-21T23:28:17;9.00;99.90
2723;DHT22;1369;53.216;10.396;2023-02-21T23:30:43;9.00;99.90
2723;DHT22;1369;53.216;10.396;2023-02-21T23:33:15;9.00;99.90
2723;DHT22;1369;53.216;10.396;2023-02-21T23:35:43;9.00;99.90
2723;DHT22;1369;53.216;10.396;2023-02-21T23:38:09;9.10;99.90
2723;DHT22;1369;53.216;10.396;2023-02-21T23:40:50;9.10;99.90
2723;DHT22;1369;53.216;10.396;2023-02-21T23:43:21;9.10;99.90
2723;DHT22;1369;53.216;10.396;2023-02-21T23:45:52;9.00;99.90
2723;DHT22;1369;53.216;10.396;2023-02-21T23:48:18;9.00;99.90
2723;DHT22;1369;53.216;10.396;2023-02-21T23:50:44;9.00;99.90
2723;DHT22;1369;53.216;10.396;2023-02-21T23:53:13;9.00;99.90
2723;DHT22;1369;53.216;10.396;2023-02-21T23:55:42;9.00;99.90
2723;DHT22;1369;53.216;10.396;2023-02-21T23:58:09;9.10;99.90
